sensor_id;sensor_type;location;lat;lon;timestamp;P1;durP1;ratioP1;P2;durP2;ratioP2
5987;SDS011;3021;51.000;6.980;2022-12-05T00:01:57;51.85;;;26.70;;
5987;SDS011;3021;51.000;6.980;2022-12-05T00:04:22;55.10;;;27.08;;
5987;SDS011;3021;51.000;6.980;2022-12-05T00:06:48;56.97;;;26.77;;
5987;SDS011;3021;51.000;6.980;2022-12-05T00:09:13;55.25;;;26.17;;
5987;SDS011;3021;51.000;6.980;2022-12-05T00:11:40;53.33;;;26.80;;
5987;SDS011;3021;51.000;6.980;2022-12-05T00:14:07;58.55;;;28.63;;
5987;SDS011;3021;51.000;6.980;2022-12-05T00:16:34;57.25;;;27.23;;
5987;SDS011;3021;51.000;6.980;2022-12-05T00:19:02;51.60;;;26.20;;
5987;SDS011;3021;51.000;6.980;2022-12-05T00:21:29;51.05;;;24.88;;
5987;SDS011;3021;51.000;6.980;2022-12-05T00:23:57;47.72;;;24.67;;
5987;SDS011;3021;51.000;6.980;2022-12-05T00:26:23;51.67;;;25.35;;
5987;SDS011;3021;51.000;6.980;2022-12-05T00:28:50;54.30;;;25.58;;
5987;SDS011;3021;51.000;6.980;2022-12-05T00:31:16;50.47;;;23.55;;
5987;SDS011;3021;51.000;6.980;2022-12-05T00:33:43;50.83;;;25.00;;
5987;SDS011;3021;51.000;6.980;2022-12-05T00:36:10;47.63;;;23.02;;
5987;SDS011;3021;51.000;6.980;2022-12-05T00:38:38;46.78;;;22.95;;
5987;SDS011;3021;51.000;6.980;2022-12-05T00:41:04;47.38;;;23.52;;
5987;SDS011;3021;51.000;6.980;2022-12-05T00:43:33;48.78;;;23.80;;
5987;SDS011;3021;51.000;6.980;2022-12-05T00:45:59;49.15;;;24.33;;
5987;SDS011;3021;51.000;6.980;2022-12-05T00:48:29;48.15;;;24.85;;
5987;SDS011;3021;51.000;6.980;2022-12-05T00:51:14;46.03;;;23.83;;
5987;SDS011;3021;51.000;6.980;2022-12-05T00:53:42;49.53;;;23.48;;
5987;SDS011;3021;51.000;6.980;2022-12-05T00:56:13;44.85;;;23.33;;
5987;SDS011;3021;51.000;6.980;2022-12-05T00:58:41;48.85;;;23.17;;
5987;SDS011;3021;51.000;6.980;2022-12-05T01:01:11;55.42;;;23.98;;
5987;SDS011;3021;51.000;6.980;2022-12-05T01:03:39;47.35;;;22.33;;
5987;SDS011;3021;51.000;6.980;2022-12-05T01:06:05;47.88;;;22.85;;
5987;SDS011;3021;51.000;6.980;2022-12-05T01:08:32;49.83;;;23.75;;
5987;SDS011;3021;51.000;6.980;2022-12-05T01:10:58;47.30;;;23.75;;
5987;SDS011;3021;51.000;6.980;2022-12-05T01:13:27;46.03;;;21.48;;
5987;SDS011;3021;51.000;6.980;2022-12-05T01:15:53;45.33;;;21.63;;
5987;SDS011;3021;51.000;6.980;2022-12-05T01:18:19;48.65;;;22.80;;
5987;SDS011;3021;51.000;6.980;2022-12-05T01:20:46;43.80;;;21.45;;
5987;SDS011;3021;51.000;6.980;2022-12-05T01:23:13;44.00;;;21.63;;
5987;SDS011;3021;51.000;6.980;2022-12-05T01:25:42;43.78;;;21.35;;
5987;SDS011;3021;51.000;6.980;2022-12-05T01:28:10;44.65;;;21.25;;
5987;SDS011;3021;51.000;6.980;2022-12-05T01:30:37;41.03;;;20.55;;
5987;SDS011;3021;51.000;6.980;2022-12-05T01:33:03;44.90;;;21.23;;
5987;SDS011;3021;51.000;6.980;2022-12-05T01:35:33;37.92;;;19.58;;
5987;SDS011;3021;51.000;6.980;2022-12-05T01:38:00;43.92;;;21.65;;
5987;SDS011;3021;51.000;6.980;2022-12-05T01:40:25;39.13;;;19.92;;
5987;SDS011;3021;51.000;6.980;2022-12-05T01:42:51;40.35;;;20.35;;
5987;SDS011;3021;51.000;6.980;2022-12-05T01:45:20;39.42;;;19.65;;
5987;SDS011;3021;51.000;6.980;2022-12-05T01:47:50;39.08;;;19.75;;
5987;SDS011;3021;51.000;6.980;2022-12-05T01:50:16;40.78;;;19.77;;
5987;SDS011;3021;51.000;6.980;2022-12-05T01:52:41;38.65;;;20.60;;
5987;SDS011;3021;51.000;6.980;2022-12-05T01:55:08;43.72;;;20.52;;
5987;SDS011;3021;51.000;6.980;2022-12-05T01:57:37;44.70;;;20.50;;
5987;SDS011;3021;51.000;6.980;2022-12-05T02:00:07;38.00;;;19.38;;
5987;SDS011;3021;51.000;6.980;2022-12-05T02:02:36;42.03;;;20.58;;
5987;SDS011;3021;51.000;6.980;2022-12-05T02:07:31;43.85;;;20.95;;
5987;SDS011;3021;51.000;6.980;2022-12-05T02:09:57;37.08;;;20.27;;
5987;SDS011;3021;51.000;6.980;2022-12-05T02:12:22;38.35;;;19.08;;
5987;SDS011;3021;51.000;6.980;2022-12-05T02:14:58;42.35;;;20.10;;
5987;SDS011;3021;51.000;6.980;2022-12-05T02:17:46;39.80;;;19.83;;
5987;SDS011;3021;51.000;6.980;2022-12-05T02:23:22;44.58;;;21.20;;
5987;SDS011;3021;51.000;6.980;2022-12-05T02:37:41;45.63;;;22.00;;
5987;SDS011;3021;51.000;6.980;2022-12-05T02:40:27;48.75;;;22.65;;
5987;SDS011;3021;51.000;6.980;2022-12-05T02:43:02;46.55;;;22.45;;
5987;SDS011;3021;51.000;6.980;2022-12-05T02:45:35;50.03;;;22.00;;
5987;SDS011;3021;51.000;6.980;2022-12-05T02:48:05;51.28;;;22.40;;
5987;SDS011;3021;51.000;6.980;2022-12-05T02:50:32;49.47;;;23.08;;
5987;SDS011;3021;51.000;6.980;2022-12-05T02:53:02;52.60;;;23.48;;
5987;SDS011;3021;51.000;6.980;2022-12-05T02:55:33;57.70;;;23.27;;
5987;SDS011;3021;51.000;6.980;2022-12-05T02:58:01;51.53;;;23.00;;
5987;SDS011;3021;51.000;6.980;2022-12-05T03:00:29;52.55;;;24.25;;
5987;SDS011;3021;51.000;6.980;2022-12-05T03:02:55;59.28;;;23.83;;
5987;SDS011;3021;51.000;6.980;2022-12-05T03:08:17;53.97;;;24.00;;
5987;SDS011;3021;51.000;6.980;2022-12-05T03:10:46;55.10;;;24.13;;
5987;SDS011;3021;51.000;6.980;2022-12-05T03:13:18;52.35;;;23.20;;
5987;SDS011;3021;51.000;6.980;2022-12-05T03:15:51;49.95;;;23.20;;
5987;SDS011;3021;51.000;6.980;2022-12-05T03:18:22;53.35;;;22.58;;
5987;SDS011;3021;51.000;6.980;2022-12-05T03:32:15;53.45;;;22.02;;
5987;SDS011;3021;51.000;6.980;2022-12-05T03:37:46;50.00;;;22.52;;
5987;SDS011;3021;51.000;6.980;2022-12-05T03:42:45;51.70;;;24.35;;
5987;SDS011;3021;51.000;6.980;2022-12-05T03:45:20;54.33;;;22.77;;
5987;SDS011;3021;51.000;6.980;2022-12-05T03:48:06;46.28;;;22.48;;
5987;SDS011;3021;51.000;6.980;2022-12-05T03:50:56;58.10;;;23.98;;
5987;SDS011;3021;51.000;6.980;2022-12-05T03:53:25;51.55;;;22.73;;
5987;SDS011;3021;51.000;6.980;2022-12-05T03:56:16;49.95;;;22.60;;
5987;SDS011;3021;51.000;6.980;2022-12-05T03:58:47;46.20;;;21.50;;
5987;SDS011;3021;51.000;6.980;2022-12-05T04:01:19;56.30;;;23.17;;
5987;SDS011;3021;51.000;6.980;2022-12-05T04:03:48;54.03;;;23.45;;
5987;SDS011;3021;51.000;6.980;2022-12-05T04:06:25;52.25;;;21.73;;
5987;SDS011;3021;51.000;6.980;2022-12-05T04:08:57;49.67;;;21.70;;
5987;SDS011;3021;51.000;6.980;2022-12-05T04:11:29;53.55;;;22.63;;
5987;SDS011;3021;51.000;6.980;2022-12-05T04:13:59;47.72;;;22.48;;
5987;SDS011;3021;51.000;6.980;2022-12-05T04:16:32;44.58;;;20.67;;
5987;SDS011;3021;51.000;6.980;2022-12-05T04:19:24;53.35;;;22.90;;
5987;SDS011;3021;51.000;6.980;2022-12-05T04:22:14;44.17;;;21.85;;
5987;SDS011;3021;51.000;6.980;2022-12-05T04:24:40;49.35;;;21.70;;
5987;SDS011;3021;51.000;6.980;2022-12-05T04:27:38;48.93;;;22.87;;
5987;SDS011;3021;51.000;6.980;2022-12-05T04:30:12;47.78;;;22.10;;
5987;SDS011;3021;51.000;6.980;2022-12-05T04:32:44;44.28;;;20.92;;
5987;SDS011;3021;51.000;6.980;2022-12-05T04:37:47;50.03;;;21.00;;
5987;SDS011;3021;51.000;6.980;2022-12-05T04:40:21;48.53;;;20.83;;
5987;SDS011;3021;51.000;6.980;2022-12-05T04:42:51;50.55;;;21.55;;
5987;SDS011;3021;51.000;6.980;2022-12-05T04:45:18;46.28;;;22.13;;
5987;SDS011;3021;51.000;6.980;2022-12-05T04:47:50;45.53;;;21.50;;
5987;SDS011;3021;51.000;6.980;2022-12-05T04:50:23;49.58;;;21.95;;
5987;SDS011;3021;51.000;6.980;2022-12-05T04:52:53;54.40;;;22.23;;
5987;SDS011;3021;51.000;6.980;2022-12-05T04:55:21;53.67;;;22.67;;
5987;SDS011;3021;51.000;6.980;2022-12-05T04:58:08;48.60;;;21.38;;
5987;SDS011;3021;51.000;6.980;2022-12-05T05:00:46;49.80;;;22.45;;
5987;SDS011;3021;51.000;6.980;2022-12-05T05:03:21;48.97;;;21.48;;
5987;SDS011;3021;51.000;6.980;2022-12-05T05:05:55;41.40;;;20.52;;
5987;SDS011;3021;51.000;6.980;2022-12-05T05:08:23;47.92;;;21.55;;
5987;SDS011;3021;51.000;6.980;2022-12-05T05:13:43;51.08;;;21.90;;
5987;SDS011;3021;51.000;6.980;2022-12-05T05:16:12;46.35;;;21.45;;
5987;SDS011;3021;51.000;6.980;2022-12-05T05:18:41;48.58;;;22.33;;
5987;SDS011;3021;51.000;6.980;2022-12-05T05:21:12;53.65;;;23.35;;
5987;SDS011;3021;51.000;6.980;2022-12-05T05:23:39;45.65;;;20.65;;
5987;SDS011;3021;51.000;6.980;2022-12-05T05:26:04;51.00;;;22.52;;
5987;SDS011;3021;51.000;6.980;2022-12-05T05:28:30;53.30;;;22.45;;
5987;SDS011;3021;51.000;6.980;2022-12-05T05:31:00;51.97;;;21.80;;
5987;SDS011;3021;51.000;6.980;2022-12-05T05:33:26;47.13;;;21.67;;
5987;SDS011;3021;51.000;6.980;2022-12-05T05:35:51;49.85;;;23.20;;
5987;SDS011;3021;51.000;6.980;2022-12-05T05:38:16;50.42;;;19.92;;
5987;SDS011;3021;51.000;6.980;2022-12-05T05:40:42;48.67;;;21.27;;
5987;SDS011;3021;51.000;6.980;2022-12-05T05:43:07;52.45;;;21.17;;
5987;SDS011;3021;51.000;6.980;2022-12-05T05:45:32;48.47;;;22.30;;
5987;SDS011;3021;51.000;6.980;2022-12-05T05:47:58;53.63;;;22.33;;
5987;SDS011;3021;51.000;6.980;2022-12-05T05:50:23;47.08;;;22.08;;
5987;SDS011;3021;51.000;6.980;2022-12-05T05:52:49;48.10;;;20.92;;
5987;SDS011;3021;51.000;6.980;2022-12-05T05:55:14;46.17;;;22.13;;
5987;SDS011;3021;51.000;6.980;2022-12-05T05:57:39;48.33;;;21.60;;
5987;SDS011;3021;51.000;6.980;2022-12-05T06:00:05;43.83;;;22.08;;
5987;SDS011;3021;51.000;6.980;2022-12-05T06:02:32;49.60;;;23.48;;
5987;SDS011;3021;51.000;6.980;2022-12-05T06:04:58;49.33;;;21.63;;
5987;SDS011;3021;51.000;6.980;2022-12-05T06:07:24;47.80;;;22.73;;
5987;SDS011;3021;51.000;6.980;2022-12-05T06:09:50;49.88;;;22.38;;
5987;SDS011;3021;51.000;6.980;2022-12-05T06:12:15;48.40;;;21.70;;
5987;SDS011;3021;51.000;6.980;2022-12-05T06:14:40;47.08;;;20.77;;
5987;SDS011;3021;51.000;6.980;2022-12-05T06:17:06;47.35;;;21.98;;
5987;SDS011;3021;51.000;6.980;2022-12-05T06:19:31;44.92;;;21.02;;
5987;SDS011;3021;51.000;6.980;2022-12-05T06:21:56;45.75;;;23.05;;
5987;SDS011;3021;51.000;6.980;2022-12-05T06:24:22;50.72;;;22.55;;
5987;SDS011;3021;51.000;6.980;2022-12-05T06:26:47;48.80;;;21.85;;
5987;SDS011;3021;51.000;6.980;2022-12-05T06:29:12;46.95;;;21.63;;
5987;SDS011;3021;51.000;6.980;2022-12-05T06:31:41;50.92;;;23.13;;
5987;SDS011;3021;51.000;6.980;2022-12-05T06:34:06;55.50;;;23.75;;
5987;SDS011;3021;51.000;6.980;2022-12-05T06:36:31;51.67;;;23.33;;
5987;SDS011;3021;51.000;6.980;2022-12-05T06:38:57;58.50;;;25.02;;
5987;SDS011;3021;51.000;6.980;2022-12-05T06:41:23;49.45;;;24.48;;
5987;SDS011;3021;51.000;6.980;2022-12-05T06:43:52;54.05;;;22.42;;
5987;SDS011;3021;51.000;6.980;2022-12-05T06:46:19;54.42;;;23.73;;
5987;SDS011;3021;51.000;6.980;2022-12-05T06:48:45;52.63;;;23.15;;
5987;SDS011;3021;51.000;6.980;2022-12-05T06:51:12;61.28;;;22.83;;
5987;SDS011;3021;51.000;6.980;2022-12-05T06:53:39;58.33;;;22.35;;
5987;SDS011;3021;51.000;6.980;2022-12-05T06:56:06;52.30;;;23.10;;
5987;SDS011;3021;51.000;6.980;2022-12-05T06:58:35;59.83;;;22.88;;
5987;SDS011;3021;51.000;6.980;2022-12-05T07:01:00;55.40;;;22.60;;
5987;SDS011;3021;51.000;6.980;2022-12-05T07:03:44;54.85;;;23.73;;
5987;SDS011;3021;51.000;6.980;2022-12-05T07:06:13;54.33;;;24.00;;
5987;SDS011;3021;51.000;6.980;2022-12-05T07:08:38;59.42;;;23.50;;
5987;SDS011;3021;51.000;6.980;2022-12-05T07:11:05;54.80;;;23.48;;
5987;SDS011;3021;51.000;6.980;2022-12-05T07:13:31;55.42;;;23.83;;
5987;SDS011;3021;51.000;6.980;2022-12-05T07:15:57;57.30;;;23.50;;
5987;SDS011;3021;51.000;6.980;2022-12-05T07:18:26;54.17;;;22.15;;
5987;SDS011;3021;51.000;6.980;2022-12-05T07:20:58;51.28;;;21.63;;
5987;SDS011;3021;51.000;6.980;2022-12-05T07:23:25;59.15;;;24.52;;
5987;SDS011;3021;51.000;6.980;2022-12-05T07:25:51;53.28;;;22.75;;
5987;SDS011;3021;51.000;6.980;2022-12-05T07:28:17;54.78;;;21.92;;
5987;SDS011;3021;51.000;6.980;2022-12-05T07:30:42;54.13;;;24.45;;
5987;SDS011;3021;51.000;6.980;2022-12-05T07:33:07;57.13;;;23.42;;
5987;SDS011;3021;51.000;6.980;2022-12-05T07:35:51;53.95;;;22.42;;
5987;SDS011;3021;51.000;6.980;2022-12-05T07:38:17;48.65;;;21.50;;
5987;SDS011;3021;51.000;6.980;2022-12-05T07:40:44;48.38;;;22.02;;
5987;SDS011;3021;51.000;6.980;2022-12-05T07:43:15;51.58;;;23.40;;
5987;SDS011;3021;51.000;6.980;2022-12-05T07:48:53;49.72;;;23.50;;
5987;SDS011;3021;51.000;6.980;2022-12-05T07:51:19;58.00;;;26.02;;
5987;SDS011;3021;51.000;6.980;2022-12-05T07:53:45;52.67;;;24.52;;
5987;SDS011;3021;51.000;6.980;2022-12-05T07:56:12;51.38;;;25.05;;
5987;SDS011;3021;51.000;6.980;2022-12-05T07:58:41;49.70;;;23.48;;
5987;SDS011;3021;51.000;6.980;2022-12-05T08:01:09;62.40;;;24.13;;
5987;SDS011;3021;51.000;6.980;2022-12-05T08:03:35;48.88;;;23.67;;
5987;SDS011;3021;51.000;6.980;2022-12-05T08:06:05;45.58;;;22.80;;
5987;SDS011;3021;51.000;6.980;2022-12-05T08:08:35;49.88;;;22.13;;
5987;SDS011;3021;51.000;6.980;2022-12-05T08:11:02;41.08;;;20.75;;
5987;SDS011;3021;51.000;6.980;2022-12-05T08:13:29;45.58;;;22.25;;
5987;SDS011;3021;51.000;6.980;2022-12-05T08:15:54;48.92;;;22.38;;
5987;SDS011;3021;51.000;6.980;2022-12-05T08:18:24;44.88;;;22.20;;
5987;SDS011;3021;51.000;6.980;2022-12-05T08:20:49;48.60;;;21.80;;
5987;SDS011;3021;51.000;6.980;2022-12-05T08:23:14;44.03;;;22.65;;
5987;SDS011;3021;51.000;6.980;2022-12-05T08:25:39;49.03;;;22.90;;
5987;SDS011;3021;51.000;6.980;2022-12-05T08:28:05;41.40;;;21.38;;
5987;SDS011;3021;51.000;6.980;2022-12-05T08:30:30;44.10;;;21.55;;
5987;SDS011;3021;51.000;6.980;2022-12-05T08:32:57;44.63;;;21.77;;
5987;SDS011;3021;51.000;6.980;2022-12-05T08:35:22;50.63;;;22.95;;
5987;SDS011;3021;51.000;6.980;2022-12-05T08:37:48;46.65;;;22.73;;
5987;SDS011;3021;51.000;6.980;2022-12-05T08:40:13;40.88;;;20.13;;
5987;SDS011;3021;51.000;6.980;2022-12-05T08:42:39;46.08;;;21.45;;
5987;SDS011;3021;51.000;6.980;2022-12-05T08:45:04;43.95;;;20.98;;
5987;SDS011;3021;51.000;6.980;2022-12-05T08:47:30;43.10;;;20.20;;
5987;SDS011;3021;51.000;6.980;2022-12-05T08:49:55;38.17;;;19.58;;
5987;SDS011;3021;51.000;6.980;2022-12-05T08:52:20;37.20;;;19.38;;
5987;SDS011;3021;51.000;6.980;2022-12-05T08:54:46;37.10;;;18.75;;
5987;SDS011;3021;51.000;6.980;2022-12-05T08:57:12;40.03;;;18.38;;
5987;SDS011;3021;51.000;6.980;2022-12-05T08:59:37;43.28;;;19.88;;
5987;SDS011;3021;51.000;6.980;2022-12-05T09:02:05;44.30;;;20.95;;
5987;SDS011;3021;51.000;6.980;2022-12-05T09:04:32;48.35;;;20.40;;
5987;SDS011;3021;51.000;6.980;2022-12-05T09:07:00;44.75;;;20.55;;
5987;SDS011;3021;51.000;6.980;2022-12-05T09:09:26;40.03;;;19.77;;
5987;SDS011;3021;51.000;6.980;2022-12-05T09:11:51;38.40;;;20.30;;
5987;SDS011;3021;51.000;6.980;2022-12-05T09:14:16;38.40;;;20.55;;
5987;SDS011;3021;51.000;6.980;2022-12-05T09:16:42;35.20;;;18.63;;
5987;SDS011;3021;51.000;6.980;2022-12-05T09:19:10;42.80;;;21.95;;
5987;SDS011;3021;51.000;6.980;2022-12-05T09:21:37;39.15;;;21.27;;
5987;SDS011;3021;51.000;6.980;2022-12-05T09:24:02;37.42;;;19.17;;
5987;SDS011;3021;51.000;6.980;2022-12-05T09:26:28;40.58;;;21.42;;
5987;SDS011;3021;51.000;6.980;2022-12-05T09:28:54;46.25;;;22.33;;
5987;SDS011;3021;51.000;6.980;2022-12-05T09:31:20;40.15;;;21.88;;
5987;SDS011;3021;51.000;6.980;2022-12-05T09:33:48;44.17;;;21.65;;
5987;SDS011;3021;51.000;6.980;2022-12-05T09:38:44;42.83;;;22.08;;
5987;SDS011;3021;51.000;6.980;2022-12-05T09:52:42;45.95;;;22.30;;
5987;SDS011;3021;51.000;6.980;2022-12-05T09:55:15;42.17;;;21.48;;
5987;SDS011;3021;51.000;6.980;2022-12-05T09:57:45;42.35;;;21.38;;
5987;SDS011;3021;51.000;6.980;2022-12-05T10:00:15;41.25;;;22.58;;
5987;SDS011;3021;51.000;6.980;2022-12-05T10:02:46;44.00;;;22.23;;
5987;SDS011;3021;51.000;6.980;2022-12-05T10:05:26;39.13;;;21.48;;
5987;SDS011;3021;51.000;6.980;2022-12-05T10:08:05;41.70;;;23.88;;
5987;SDS011;3021;51.000;6.980;2022-12-05T10:10:55;47.53;;;24.45;;
5987;SDS011;3021;51.000;6.980;2022-12-05T10:13:39;51.77;;;26.37;;
5987;SDS011;3021;51.000;6.980;2022-12-05T10:17:02;35.55;;;20.20;;
5987;SDS011;3021;51.000;6.980;2022-12-05T10:19:14;50.03;;;20.67;;
5987;SDS011;3021;51.000;6.980;2022-12-05T10:24:11;39.15;;;20.60;;
5987;SDS011;3021;51.000;6.980;2022-12-05T10:26:44;37.38;;;20.20;;
5987;SDS011;3021;51.000;6.980;2022-12-05T10:31:41;37.75;;;21.23;;
5987;SDS011;3021;51.000;6.980;2022-12-05T10:34:16;40.13;;;20.27;;
5987;SDS011;3021;51.000;6.980;2022-12-05T10:36:52;40.55;;;20.55;;
5987;SDS011;3021;51.000;6.980;2022-12-05T10:39:20;42.35;;;22.08;;
5987;SDS011;3021;51.000;6.980;2022-12-05T10:41:46;45.08;;;23.15;;
5987;SDS011;3021;51.000;6.980;2022-12-05T10:44:11;40.13;;;21.98;;
5987;SDS011;3021;51.000;6.980;2022-12-05T10:46:36;44.05;;;22.00;;
5987;SDS011;3021;51.000;6.980;2022-12-05T10:49:04;40.03;;;21.33;;
5987;SDS011;3021;51.000;6.980;2022-12-05T10:51:34;36.42;;;20.80;;
5987;SDS011;3021;51.000;6.980;2022-12-05T10:54:00;35.47;;;20.50;;
5987;SDS011;3021;51.000;6.980;2022-12-05T10:59:09;37.70;;;22.42;;
5987;SDS011;3021;51.000;6.980;2022-12-05T11:01:37;41.83;;;23.40;;
5987;SDS011;3021;51.000;6.980;2022-12-05T11:04:23;40.17;;;22.73;;
5987;SDS011;3021;51.000;6.980;2022-12-05T11:06:52;39.40;;;22.48;;
5987;SDS011;3021;51.000;6.980;2022-12-05T11:09:29;41.13;;;22.73;;
5987;SDS011;3021;51.000;6.980;2022-12-05T11:17:41;43.20;;;23.27;;
5987;SDS011;3021;51.000;6.980;2022-12-05T11:22:48;37.72;;;22.42;;
5987;SDS011;3021;51.000;6.980;2022-12-05T11:27:52;37.50;;;21.40;;
5987;SDS011;3021;51.000;6.980;2022-12-05T11:30:23;39.72;;;21.00;;
5987;SDS011;3021;51.000;6.980;2022-12-05T11:33:18;36.00;;;20.20;;
5987;SDS011;3021;51.000;6.980;2022-12-05T11:35:49;36.65;;;19.42;;
5987;SDS011;3021;51.000;6.980;2022-12-05T11:38:17;33.47;;;19.42;;
5987;SDS011;3021;51.000;6.980;2022-12-05T11:48:26;31.13;;;19.05;;
5987;SDS011;3021;51.000;6.980;2022-12-05T11:56:36;25.95;;;16.60;;
5987;SDS011;3021;51.000;6.980;2022-12-05T12:31:41;34.42;;;21.02;;
5987;SDS011;3021;51.000;6.980;2022-12-05T12:39:55;45.55;;;23.67;;
5987;SDS011;3021;51.000;6.980;2022-12-05T12:42:24;33.13;;;19.45;;
5987;SDS011;3021;51.000;6.980;2022-12-05T12:52:58;34.72;;;20.00;;
5987;SDS011;3021;51.000;6.980;2022-12-05T13:04:04;35.67;;;21.27;;
5987;SDS011;3021;51.000;6.980;2022-12-05T13:11:41;38.22;;;19.85;;
5987;SDS011;3021;51.000;6.980;2022-12-05T13:14:13;30.73;;;18.45;;
5987;SDS011;3021;51.000;6.980;2022-12-05T13:16:42;33.70;;;19.73;;
5987;SDS011;3021;51.000;6.980;2022-12-05T13:22:07;35.33;;;20.55;;
5987;SDS011;3021;51.000;6.980;2022-12-05T13:24:33;36.85;;;20.70;;
5987;SDS011;3021;51.000;6.980;2022-12-05T13:27:06;37.97;;;21.30;;
5987;SDS011;3021;51.000;6.980;2022-12-05T13:29:34;36.83;;;21.85;;
5987;SDS011;3021;51.000;6.980;2022-12-05T13:32:04;39.25;;;21.65;;
5987;SDS011;3021;51.000;6.980;2022-12-05T13:37:19;37.40;;;20.85;;
5987;SDS011;3021;51.000;6.980;2022-12-05T13:40:18;37.65;;;22.05;;
5987;SDS011;3021;51.000;6.980;2022-12-05T13:43:06;35.08;;;21.80;;
5987;SDS011;3021;51.000;6.980;2022-12-05T13:45:33;36.78;;;21.92;;
5987;SDS011;3021;51.000;6.980;2022-12-05T13:53:29;32.83;;;20.38;;
5987;SDS011;3021;51.000;6.980;2022-12-05T13:58:43;28.83;;;17.45;;
5987;SDS011;3021;51.000;6.980;2022-12-05T14:11:23;30.00;;;19.23;;
5987;SDS011;3021;51.000;6.980;2022-12-05T14:13:49;33.10;;;19.67;;
5987;SDS011;3021;51.000;6.980;2022-12-05T14:24:14;34.55;;;20.65;;
5987;SDS011;3021;51.000;6.980;2022-12-05T14:27:06;38.15;;;22.55;;
5987;SDS011;3021;51.000;6.980;2022-12-05T14:32:31;37.15;;;20.90;;
5987;SDS011;3021;51.000;6.980;2022-12-05T14:37:27;38.50;;;22.35;;
5987;SDS011;3021;51.000;6.980;2022-12-05T14:39:58;36.53;;;21.75;;
5987;SDS011;3021;51.000;6.980;2022-12-05T14:43:15;38.63;;;22.45;;
5987;SDS011;3021;51.000;6.980;2022-12-05T14:48:00;38.53;;;23.02;;
5987;SDS011;3021;51.000;6.980;2022-12-05T14:53:26;39.85;;;24.15;;
5987;SDS011;3021;51.000;6.980;2022-12-05T14:56:08;46.17;;;24.67;;
5987;SDS011;3021;51.000;6.980;2022-12-05T15:04:27;46.20;;;25.05;;
5987;SDS011;3021;51.000;6.980;2022-12-05T15:06:54;46.10;;;25.23;;
5987;SDS011;3021;51.000;6.980;2022-12-05T15:11:59;42.90;;;23.83;;
5987;SDS011;3021;51.000;6.980;2022-12-05T15:14:28;44.45;;;23.73;;
5987;SDS011;3021;51.000;6.980;2022-12-05T15:17:07;44.25;;;24.05;;
5987;SDS011;3021;51.000;6.980;2022-12-05T15:19:50;40.53;;;22.63;;
5987;SDS011;3021;51.000;6.980;2022-12-05T15:22:20;40.25;;;21.67;;
5987;SDS011;3021;51.000;6.980;2022-12-05T15:24:49;40.47;;;23.05;;
5987;SDS011;3021;51.000;6.980;2022-12-05T15:27:15;40.40;;;23.55;;
5987;SDS011;3021;51.000;6.980;2022-12-05T15:29:40;40.35;;;22.42;;
5987;SDS011;3021;51.000;6.980;2022-12-05T15:42:23;49.15;;;25.30;;
5987;SDS011;3021;51.000;6.980;2022-12-05T15:44:48;49.90;;;27.35;;
5987;SDS011;3021;51.000;6.980;2022-12-05T15:47:21;45.85;;;25.92;;
5987;SDS011;3021;51.000;6.980;2022-12-05T15:49:48;52.53;;;29.00;;
5987;SDS011;3021;51.000;6.980;2022-12-05T15:54:49;44.80;;;26.40;;
5987;SDS011;3021;51.000;6.980;2022-12-05T15:57:22;47.67;;;26.48;;
5987;SDS011;3021;51.000;6.980;2022-12-05T16:00:00;59.50;;;31.95;;
5987;SDS011;3021;51.000;6.980;2022-12-05T16:02:39;51.55;;;28.83;;
5987;SDS011;3021;51.000;6.980;2022-12-05T16:05:33;44.58;;;25.17;;
5987;SDS011;3021;51.000;6.980;2022-12-05T16:08:03;44.10;;;24.25;;
5987;SDS011;3021;51.000;6.980;2022-12-05T16:10:30;51.08;;;28.27;;
5987;SDS011;3021;51.000;6.980;2022-12-05T16:13:01;49.17;;;28.33;;
5987;SDS011;3021;51.000;6.980;2022-12-05T16:15:31;46.75;;;25.75;;
5987;SDS011;3021;51.000;6.980;2022-12-05T16:17:58;37.83;;;22.45;;
5987;SDS011;3021;51.000;6.980;2022-12-05T16:28:37;28.42;;;18.08;;
5987;SDS011;3021;51.000;6.980;2022-12-05T16:31:03;33.67;;;19.88;;
5987;SDS011;3021;51.000;6.980;2022-12-05T16:33:32;31.85;;;19.45;;
5987;SDS011;3021;51.000;6.980;2022-12-05T16:36:10;33.80;;;20.42;;
5987;SDS011;3021;51.000;6.980;2022-12-05T16:38:37;34.03;;;20.85;;
5987;SDS011;3021;51.000;6.980;2022-12-05T16:41:05;34.50;;;20.55;;
5987;SDS011;3021;51.000;6.980;2022-12-05T16:48:36;39.28;;;20.98;;
5987;SDS011;3021;51.000;6.980;2022-12-05T16:53:35;34.70;;;20.75;;
5987;SDS011;3021;51.000;6.980;2022-12-05T16:56:03;45.55;;;23.95;;
5987;SDS011;3021;51.000;6.980;2022-12-05T16:58:29;35.05;;;20.23;;
5987;SDS011;3021;51.000;6.980;2022-12-05T17:00:59;60.15;;;29.15;;
5987;SDS011;3021;51.000;6.980;2022-12-05T17:03:27;58.40;;;30.58;;
5987;SDS011;3021;51.000;6.980;2022-12-05T17:05:53;54.20;;;30.10;;
5987;SDS011;3021;51.000;6.980;2022-12-05T17:08:20;49.53;;;28.08;;
5987;SDS011;3021;51.000;6.980;2022-12-05T17:10:45;45.55;;;25.45;;
5987;SDS011;3021;51.000;6.980;2022-12-05T17:13:14;41.22;;;24.00;;
5987;SDS011;3021;51.000;6.980;2022-12-05T17:15:41;42.42;;;24.60;;
5987;SDS011;3021;51.000;6.980;2022-12-05T17:18:10;51.17;;;28.58;;
5987;SDS011;3021;51.000;6.980;2022-12-05T17:20:38;48.10;;;25.27;;
5987;SDS011;3021;51.000;6.980;2022-12-05T17:23:05;49.55;;;26.67;;
5987;SDS011;3021;51.000;6.980;2022-12-05T17:25:35;45.53;;;24.92;;
5987;SDS011;3021;51.000;6.980;2022-12-05T17:28:02;52.13;;;27.27;;
5987;SDS011;3021;51.000;6.980;2022-12-05T17:30:28;43.72;;;24.27;;
5987;SDS011;3021;51.000;6.980;2022-12-05T17:32:53;47.42;;;26.08;;
5987;SDS011;3021;51.000;6.980;2022-12-05T17:35:19;44.67;;;23.17;;
5987;SDS011;3021;51.000;6.980;2022-12-05T17:37:46;45.60;;;24.15;;
5987;SDS011;3021;51.000;6.980;2022-12-05T17:40:11;46.75;;;24.35;;
5987;SDS011;3021;51.000;6.980;2022-12-05T17:42:38;59.92;;;31.48;;
5987;SDS011;3021;51.000;6.980;2022-12-05T17:45:11;47.60;;;26.60;;
5987;SDS011;3021;51.000;6.980;2022-12-05T17:47:38;49.42;;;25.88;;
5987;SDS011;3021;51.000;6.980;2022-12-05T17:50:04;45.33;;;24.77;;
5987;SDS011;3021;51.000;6.980;2022-12-05T17:52:31;50.47;;;27.80;;
5987;SDS011;3021;51.000;6.980;2022-12-05T17:54:58;43.08;;;24.80;;
5987;SDS011;3021;51.000;6.980;2022-12-05T17:57:23;47.25;;;25.35;;
5987;SDS011;3021;51.000;6.980;2022-12-05T17:59:49;50.15;;;26.80;;
5987;SDS011;3021;51.000;6.980;2022-12-05T18:02:14;48.10;;;26.00;;
5987;SDS011;3021;51.000;6.980;2022-12-05T18:04:41;47.53;;;26.17;;
5987;SDS011;3021;51.000;6.980;2022-12-05T18:07:07;49.42;;;27.55;;
5987;SDS011;3021;51.000;6.980;2022-12-05T18:09:32;54.97;;;28.25;;
5987;SDS011;3021;51.000;6.980;2022-12-05T18:11:57;52.17;;;26.60;;
5987;SDS011;3021;51.000;6.980;2022-12-05T18:14:23;47.33;;;25.25;;
5987;SDS011;3021;51.000;6.980;2022-12-05T18:16:49;46.00;;;26.60;;
5987;SDS011;3021;51.000;6.980;2022-12-05T18:19:15;52.92;;;29.08;;
5987;SDS011;3021;51.000;6.980;2022-12-05T18:21:40;83.25;;;40.42;;
5987;SDS011;3021;51.000;6.980;2022-12-05T18:24:05;62.47;;;33.25;;
5987;SDS011;3021;51.000;6.980;2022-12-05T18:26:31;57.80;;;32.35;;
5987;SDS011;3021;51.000;6.980;2022-12-05T18:28:56;48.17;;;27.40;;
5987;SDS011;3021;51.000;6.980;2022-12-05T18:31:23;57.85;;;31.85;;
5987;SDS011;3021;51.000;6.980;2022-12-05T18:33:48;53.38;;;28.08;;
5987;SDS011;3021;51.000;6.980;2022-12-05T18:36:15;51.47;;;29.00;;
5987;SDS011;3021;51.000;6.980;2022-12-05T18:38:47;44.03;;;26.00;;
5987;SDS011;3021;51.000;6.980;2022-12-05T18:41:14;51.63;;;28.52;;
5987;SDS011;3021;51.000;6.980;2022-12-05T18:43:39;50.03;;;27.20;;
5987;SDS011;3021;51.000;6.980;2022-12-05T18:46:05;53.00;;;30.95;;
5987;SDS011;3021;51.000;6.980;2022-12-05T18:48:30;52.85;;;28.77;;
5987;SDS011;3021;51.000;6.980;2022-12-05T18:51:11;55.47;;;31.35;;
5987;SDS011;3021;51.000;6.980;2022-12-05T18:53:38;56.83;;;31.55;;